NCAR-RAP Real-Time Weather Data

Output produced by METARs form (17 October 2018  17:04 UTC)
found at http://weather.rap.ucar.edu/surface/
 
RJOW 171000Z VRB02KT 9999 FEW030 BKN/// 15/14 Q1013
RJOW 170900Z VRB01KT 9999 FEW030 BKN/// 18/13 Q1013
RJOW 170800Z VRB02KT 9999 FEW030 BKN/// 19/13 Q1013
RJOW 170700Z 31004KT 280V350 9999 FEW030 BKN/// 19/13 Q1013
RJOW 170600Z 32004KT 270V030 9999 FEW030 SCT/// 20/12 Q1012
RJOW 170500Z 33005KT 290V010 9999 FEW035 SCT/// 20/13 Q1012
RJOW 170400Z 33005KT 290V020 9999 FEW030 SCT/// 20/13 Q1012
RJOW 170300Z 03004KT 340V070 9999 FEW030 SCT/// 20/12 Q1013
RJOW 170200Z 34003KT 210V030 9999 FEW030 SCT/// 20/12 Q1013
RJOW 170100Z 15003KT 050V210 9999 FEW030 SCT/// 19/13 Q1013
RJOW 170000Z 16004KT 9999 FEW030 16/13 Q1013
RJOW 162300Z 15005KT 110V180 9999 FEW030 13/12 Q1013
RJOW 161000Z VRB02KT 9999 -SHRA FEW030 BKN045 18/13 Q1012
RJOW 160900Z VRB02KT 9999 FEW030 SCT035 BKN045 19/12 Q1012
RJOW 160800Z 04005KT 360V100 9999 FEW030 BKN040 19/12 Q1012
RJOW 160700Z 03004KT 340V080 9999 FEW030 BKN040 BKN070 20/12 Q1012
RJOW 160600Z 02007KT 340V080 9999 FEW030 SCT035 BKN140 20/13 Q1012
RJOW 160500Z 01007KT 340V050 9999 FEW030 BKN160 BKN/// 20/12 Q1012
RJOW 160400Z 01006KT 320V070 9999 FEW030 SCT160 BKN/// 20/12 Q1013
RJOW 160300Z 36007KT 330V050 9999 FEW030 BKN/// 21/12 Q1013
RJOW 160200Z 36005KT 310V080 9999 FEW025 BKN/// 19/12 Q1014
RJOW 160100Z VRB02KT 9999 FEW025 BKN/// 19/13 Q1015
RJOW 160000Z 16005KT 9999 FEW030 BKN/// 16/13 Q1016
RJOW 152300Z 16005KT 9999 FEW030 BKN/// 14/11 Q1016
RJOW 151000Z VRB02KT 9999 FEW035 15/12 Q1017
RJOW 150900Z VRB02KT 9999 FEW030 SCT/// 17/12 Q1017
RJOW 150800Z VRB02KT 9999 FEW030 BKN/// 19/10 Q1017
RJOW 150700Z 32003KT 290V360 9999 FEW030 BKN/// 20/10 Q1017
RJOW 150600Z 30006KT 280V350 9999 FEW030 SCT/// 21/11 Q1017